Time;durP1;ratioP1;P1;durP2;ratioP2;P2;SDS_P1;SDS_P2;PMS_P1;PMS_P2;Temp;Humidity;BMP_temperature;BMP_pressure;BME280_temperature;BME280_humidity;BME280_pressure;Samples;Min_cycle;Max_cycle;Signal;HPM_P1;HPM_P2
2022/01/06 00:01:53;;;;;;;9.43;7.60;;;;;;;-144.47;100.00;61586.06;5016864;28;20493;-85
2022/01/06 00:04:19;;;;;;;10.02;9.05;;;;;;;-144.47;100.00;61586.06;5041905;28;20041;-85
2022/01/06 00:06:46;;;;;;;10.25;8.70;;;;;;;-144.47;100.00;61586.06;5057241;28;20029;-84
2022/01/06 00:09:15;;;;;;;11.52;8.00;;;;;;;-144.47;100.00;61586.06;5051474;28;20271;-84
2022/01/06 00:11:41;;;;;;;8.98;7.93;;;;;;;-144.47;100.00;61586.06;5021077;28;20443;-83
2022/01/06 00:14:17;;;;;;;9.85;8.00;;;;;;;-144.47;100.00;61586.06;5037070;28;20037;-84
2022/01/06 00:16:59;;;;;;;8.70;7.13;;;;;;;-144.47;100.00;61586.06;5017264;28;20069;-85
2022/01/06 00:24:52;;;;;;;10.80;8.60;;;;;;;-144.47;100.00;61586.06;5033729;28;20069;-85
2022/01/06 00:27:18;;;;;;;8.98;8.00;;;;;;;-144.47;100.00;61586.06;5033436;28;20033;-86
2022/01/06 00:29:43;;;;;;;10.80;8.43;;;;;;;-144.47;100.00;61586.06;5036431;28;20050;-84
2022/01/06 00:32:09;;;;;;;12.55;8.70;;;;;;;-144.47;100.00;61586.06;5033391;28;20041;-85
2022/01/06 00:34:35;;;;;;;11.05;8.85;;;;;;;-144.47;100.00;61586.06;5033480;28;20029;-85
2022/01/06 00:37:02;;;;;;;13.13;9.23;;;;;;;-144.47;100.00;61586.06;5033352;28;20040;-84
2022/01/06 00:39:28;;;;;;;11.23;10.02;;;;;;;-144.47;100.00;61586.06;5032088;28;20025;-84
2022/01/06 00:41:56;;;;;;;12.18;10.23;;;;;;;-144.47;100.00;61586.06;5033442;28;20044;-84
2022/01/06 00:44:23;;;;;;;11.68;9.30;;;;;;;-144.47;100.00;61586.06;5033717;28;20060;-83
2022/01/06 00:46:49;;;;;;;13.10;9.80;;;;;;;-144.47;100.00;61586.06;5033439;28;20029;-85
2022/01/06 00:49:17;;;;;;;11.75;9.30;;;;;;;-144.47;100.00;61586.06;5015104;28;20064;-85
2022/01/06 00:51:43;;;;;;;11.45;9.30;;;;;;;-144.47;100.00;61586.06;5033183;28;20029;-85
2022/01/06 00:54:09;;;;;;;12.82;9.70;;;;;;;-144.47;100.00;61586.06;5032982;28;20041;-86
2022/01/06 00:56:34;;;;;;;11.85;8.95;;;;;;;-144.47;100.00;61586.06;5033546;28;20033;-84
2022/01/06 00:59:00;;;;;;;11.90;8.30;;;;;;;-144.47;100.00;61586.06;5033013;28;20037;-84
2022/01/06 01:01:25;;;;;;;7.80;6.13;;;;;;;-144.47;100.00;61586.06;5014882;28;20401;-84
2022/01/06 01:03:51;;;;;;;5.78;4.95;;;;;;;-144.47;100.00;61586.06;5032894;28;20048;-85
2022/01/06 01:06:16;;;;;;;6.07;5.00;;;;;;;-144.47;100.00;61586.06;5032638;28;20060;-85
2022/01/06 01:08:42;;;;;;;5.97;5.38;;;;;;;-144.47;100.00;61586.06;5032734;28;20036;-85
2022/01/06 01:11:07;;;;;;;7.53;6.30;;;;;;;-144.47;100.00;61586.06;5015167;28;20474;-85
2022/01/06 01:13:37;;;;;;;6.22;4.93;;;;;;;-144.47;100.00;61586.06;5032668;28;20026;-85
2022/01/06 01:16:19;;;;;;;6.03;4.77;;;;;;;-144.47;100.00;61586.06;5031831;28;20533;-85
2022/01/06 01:18:45;;;;;;;7.18;5.75;;;;;;;-144.47;100.00;61586.06;5032133;28;20350;-85
2022/01/06 01:21:11;;;;;;;7.35;5.18;;;;;;;-144.47;100.00;61586.06;5031780;28;20188;-85
2022/01/06 01:23:37;;;;;;;5.38;4.75;;;;;;;-144.47;100.00;61586.06;5013794;28;20181;-85
2022/01/06 01:26:02;;;;;;;5.05;4.35;;;;;;;-144.47;100.00;61586.06;5032014;28;20484;-83
2022/01/06 01:28:33;;;;;;;6.18;4.18;;;;;;;-144.47;100.00;61586.06;5033726;28;20040;-84
2022/01/06 01:31:44;;;;;;;4.90;4.40;;;;;;;-144.47;100.00;61586.06;5033628;28;20486;-84
2022/01/06 01:33:49;;;;;;;5.00;4.40;;;;;;;-144.47;100.00;61586.06;5024401;28;20746;-84
2022/01/06 01:36:15;;;;;;;7.13;4.78;;;;;;;-144.47;100.00;61586.06;5032294;28;20044;-85
2022/01/06 01:38:43;;;;;;;4.20;3.65;;;;;;;-144.47;100.00;61586.06;5032099;28;20045;-84
2022/01/06 01:41:10;;;;;;;7.13;3.85;;;;;;;-144.47;100.00;61586.06;5031832;28;20037;-84
2022/01/06 01:43:37;;;;;;;3.92;3.53;;;;;;;-144.47;100.00;61586.06;5031762;28;20037;-84
2022/01/06 01:46:12;;;;;;;4.40;3.70;;;;;;;-144.47;100.00;61586.06;5031444;28;20352;-85
2022/01/06 01:48:42;;;;;;;4.82;4.32;;;;;;;-144.47;100.00;61586.06;5014201;28;20034;-85
2022/01/06 01:51:08;;;;;;;4.53;4.13;;;;;;;-144.47;100.00;61586.06;5014617;28;20033;-83
2022/01/06 01:53:36;;;;;;;4.47;4.07;;;;;;;-144.47;100.00;61586.06;5041482;28;20026;-84
2022/01/06 01:56:08;;;;;;;4.88;3.67;;;;;;;-144.47;100.00;61586.06;5044886;28;20043;-83
2022/01/06 01:58:35;;;;;;;4.50;3.72;;;;;;;-144.47;100.00;61586.06;5028556;28;20045;-84
2022/01/06 02:01:00;;;;;;;5.32;3.97;;;;;;;-144.47;100.00;61586.06;5050142;28;20029;-84
2022/01/06 02:03:31;;;;;;;5.47;4.00;;;;;;;-144.47;100.00;61586.06;5047259;28;20051;-84
2022/01/06 02:05:57;;;;;;;4.68;4.00;;;;;;;-144.47;100.00;61586.06;5047839;28;20512;-84
2022/01/06 02:08:22;;;;;;;4.72;4.28;;;;;;;-144.47;100.00;61586.06;5030812;28;20018;-85
2022/01/06 02:10:48;;;;;;;5.03;3.92;;;;;;;-144.47;100.00;61586.06;5051260;28;20120;-84
2022/01/06 02:13:15;;;;;;;4.68;4.15;;;;;;;-144.47;100.00;61586.06;5051715;28;20057;-85
2022/01/06 02:15:40;;;;;;;7.03;4.78;;;;;;;-144.47;100.00;61586.06;5051783;28;20045;-84
2022/01/06 02:18:06;;;;;;;8.18;5.18;;;;;;;-144.47;100.00;61586.06;5050056;28;20029;-84
2022/01/06 02:20:31;;;;;;;6.82;5.20;;;;;;;-144.47;100.00;61586.06;5051297;28;20033;-84
2022/01/06 02:22:57;;;;;;;11.20;5.82;;;;;;;-144.47;100.00;61586.06;5033738;28;20055;-83
2022/01/06 02:25:29;;;;;;;5.80;5.22;;;;;;;-144.47;100.00;61586.06;5050736;28;20052;-85
2022/01/06 02:27:55;;;;;;;8.05;5.95;;;;;;;-144.47;100.00;61586.06;5044342;28;20165;-84
2022/01/06 02:30:23;;;;;;;6.15;5.47;;;;;;;-144.47;100.00;61586.06;5060131;28;20025;-84
2022/01/06 02:32:51;;;;;;;5.57;4.97;;;;;;;-144.47;100.00;61586.06;5062847;28;20096;-84
2022/01/06 02:35:19;;;;;;;6.47;5.03;;;;;;;-144.47;100.00;61586.06;5053382;28;20041;-85
2022/01/06 02:37:45;;;;;;;6.20;5.10;;;;;;;-144.47;100.00;61586.06;5054422;28;20030;-84
2022/01/06 02:40:16;;;;;;;8.52;6.43;;;;;;;-144.47;100.00;61586.06;5036540;28;20064;-84
2022/01/06 02:42:48;;;;;;;7.53;5.82;;;;;;;-144.47;100.00;61586.06;5025530;28;20052;-85
2022/01/06 02:45:14;;;;;;;5.57;5.05;;;;;;;-144.47;100.00;61586.06;5032057;28;20037;-85
2022/01/06 02:47:42;;;;;;;9.43;5.55;;;;;;;-144.47;100.00;61586.06;5032334;28;20041;-84
2022/01/06 02:50:10;;;;;;;5.93;5.43;;;;;;;-144.47;100.00;61586.06;5032060;28;20034;-82
2022/01/06 02:52:36;;;;;;;7.57;5.32;;;;;;;-144.47;100.00;61586.06;5013499;28;20033;-83
2022/01/06 02:55:04;;;;;;;6.38;5.43;;;;;;;-144.47;100.00;61586.06;5031012;28;20043;-82
2022/01/06 02:57:29;;;;;;;5.60;5.07;;;;;;;-144.47;100.00;61586.06;5030803;28;20140;-82
2022/01/06 02:59:55;;;;;;;6.47;5.07;;;;;;;-144.47;100.00;61586.06;5032567;28;20564;-86
2022/01/06 03:02:20;;;;;;;4.95;4.45;;;;;;;-144.47;100.00;61586.06;5030928;28;20033;-86
2022/01/06 03:04:46;;;;;;;6.43;4.95;;;;;;;-144.47;100.00;61586.06;5032708;28;21472;-87
2022/01/06 03:07:12;;;;;;;4.53;4.13;;;;;;;-144.47;100.00;61586.06;5030630;28;20049;-85
2022/01/06 03:09:38;;;;;;;5.13;4.00;;;;;;;-144.47;100.00;61586.06;5030520;28;20022;-85
2022/01/06 03:15:09;;;;;;;4.72;4.22;;;;;;;-144.47;100.00;61586.06;5006979;28;20124;-87
2022/01/06 03:17:39;;;;;;;5.07;4.57;;;;;;;-144.47;100.00;61586.06;5001596;28;20034;-86
2022/01/06 03:20:09;;;;;;;4.75;4.00;;;;;;;-144.47;100.00;61586.06;5000274;28;20037;-86
2022/01/06 03:22:35;;;;;;;3.67;3.38;;;;;;;-144.47;100.00;61586.06;5002686;28;20034;-87
2022/01/06 03:25:01;;;;;;;4.07;3.60;;;;;;;-144.47;100.00;61586.06;5001531;28;20062;-86
2022/01/06 03:27:27;;;;;;;5.70;3.83;;;;;;;-144.47;100.00;61586.06;4997924;28;20150;-86
2022/01/06 03:29:52;;;;;;;4.20;3.80;;;;;;;-144.47;100.00;61586.06;5006080;28;20037;-87
2022/01/06 03:32:19;;;;;;;5.53;3.50;;;;;;;-144.47;100.00;61586.06;5001845;28;20164;-86
2022/01/06 03:34:46;;;;;;;5.35;3.83;;;;;;;-144.47;100.00;61586.06;4980895;28;20424;-86
2022/01/06 03:37:12;;;;;;;4.43;3.60;;;;;;;-144.47;100.00;61586.06;5000050;28;20042;-86
2022/01/06 03:39:38;;;;;;;4.13;3.63;;;;;;;-144.47;100.00;61586.06;5000157;28;20027;-86
2022/01/06 03:42:04;;;;;;;4.13;3.72;;;;;;;-144.47;100.00;61586.06;5001247;28;20025;-86
2022/01/06 03:44:30;;;;;;;4.95;3.42;;;;;;;-144.47;100.00;61586.06;5000011;28;20057;-86
2022/01/06 03:46:55;;;;;;;3.40;3.13;;;;;;;-144.47;100.00;61586.06;5003962;28;20115;-86
2022/01/06 03:49:21;;;;;;;3.00;2.70;;;;;;;-144.47;100.00;61586.06;5005288;28;20033;-87
2022/01/06 03:51:48;;;;;;;4.18;3.78;;;;;;;-144.47;100.00;61586.06;4998933;28;20026;-86
2022/01/06 03:54:14;;;;;;;4.40;4.00;;;;;;;-144.47;100.00;61586.06;5004171;28;20038;-86
2022/01/06 03:56:40;;;;;;;5.80;4.40;;;;;;;-144.47;100.00;61586.06;5005395;28;20117;-85
2022/01/06 03:59:06;;;;;;;5.72;4.53;;;;;;;-144.47;100.00;61586.06;5000779;28;20456;-85
2022/01/06 04:01:33;;;;;;;6.28;5.28;;;;;;;-144.47;100.00;61586.06;5010110;28;20367;-84
2022/01/06 04:03:58;;;;;;;5.15;4.65;;;;;;;-144.47;100.00;61586.06;4984992;28;20030;-85
2022/01/06 04:06:24;;;;;;;6.50;5.03;;;;;;;-144.47;100.00;61586.06;5002105;28;20506;-86
2022/01/06 04:08:51;;;;;;;5.70;5.10;;;;;;;-144.47;100.00;61586.06;5005577;28;20026;-86
2022/01/06 04:11:17;;;;;;;4.68;4.28;;;;;;;-144.47;100.00;61586.06;5002000;28;20537;-85
2022/01/06 04:13:43;;;;;;;8.48;4.35;;;;;;;-144.47;100.00;61586.06;5004396;28;20398;-85
2022/01/06 04:16:11;;;;;;;5.05;4.65;;;;;;;-144.47;100.00;61586.06;5018900;28;20053;-86
2022/01/06 04:18:37;;;;;;;4.22;3.63;;;;;;;-144.47;100.00;61586.06;5005205;28;20109;-85
2022/01/06 04:21:03;;;;;;;7.18;4.43;;;;;;;-144.47;100.00;61586.06;5023913;28;20129;-86
2022/01/06 04:23:29;;;;;;;4.80;4.30;;;;;;;-144.47;100.00;61586.06;5021370;28;20044;-87
2022/01/06 04:25:56;;;;;;;4.75;4.18;;;;;;;-144.47;100.00;61586.06;5024581;28;20037;-86
2022/01/06 04:28:21;;;;;;;4.30;3.90;;;;;;;-144.47;100.00;61586.06;4986769;28;20037;-86
2022/01/06 04:30:47;;;;;;;4.90;3.50;;;;;;;-144.47;100.00;61586.06;5031304;28;20052;-87
2022/01/06 04:33:12;;;;;;;3.65;3.33;;;;;;;-144.47;100.00;61586.06;5032109;28;20025;-85
2022/01/06 04:35:38;;;;;;;3.72;3.33;;;;;;;-144.47;100.00;61586.06;5032686;28;20057;-87
2022/01/06 04:38:03;;;;;;;3.92;3.30;;;;;;;-144.47;100.00;61586.06;5032063;28;20033;-84
2022/01/06 04:40:29;;;;;;;5.18;3.50;;;;;;;-144.47;100.00;61586.06;5032697;28;20382;-87
2022/01/06 04:42:54;;;;;;;4.30;3.90;;;;;;;-144.47;100.00;61586.06;5032535;28;20033;-86
2022/01/06 04:45:20;;;;;;;7.38;4.28;;;;;;;-144.47;100.00;61586.06;5031959;28;20033;-86
2022/01/06 04:47:45;;;;;;;5.53;4.43;;;;;;;-144.47;100.00;61586.06;5032503;28;20038;-85
2022/01/06 04:50:11;;;;;;;5.10;4.60;;;;;;;-144.47;100.00;61586.06;5032028;28;20030;-87
2022/01/06 04:52:36;;;;;;;5.85;5.35;;;;;;;-144.47;100.00;61586.06;5014695;28;20037;-87
2022/01/06 04:55:03;;;;;;;6.72;5.30;;;;;;;-144.47;100.00;61586.06;5031929;28;20087;-85
2022/01/06 04:57:29;;;;;;;7.10;5.38;;;;;;;-144.47;100.00;61586.06;5013837;28;20034;-86
2022/01/06 04:59:54;;;;;;;6.05;4.97;;;;;;;-144.47;100.00;61586.06;5034342;28;20040;-86
2022/01/06 05:02:20;;;;;;;7.95;5.60;;;;;;;-144.47;100.00;61586.06;5031979;28;20038;-87
2022/01/06 05:04:45;;;;;;;6.00;5.35;;;;;;;-144.47;100.00;61586.06;5031176;28;20366;-86
2022/01/06 05:07:11;;;;;;;6.45;5.30;;;;;;;-144.47;100.00;61586.06;5032028;28;20036;-86
2022/01/06 05:09:36;;;;;;;7.05;6.15;;;;;;;-144.47;100.00;61586.06;5032187;28;20061;-86
2022/01/06 05:12:02;;;;;;;6.03;4.97;;;;;;;-144.47;100.00;61586.06;5032035;28;20399;-85
2022/01/06 05:14:27;;;;;;;6.55;5.15;;;;;;;-144.47;100.00;61586.06;5031796;28;20045;-86
2022/01/06 05:16:55;;;;;;;5.68;5.18;;;;;;;-144.47;100.00;61586.06;5031925;28;20065;-86
2022/01/06 05:19:23;;;;;;;5.85;5.07;;;;;;;-144.47;100.00;61586.06;5031366;28;20038;-87
2022/01/06 05:21:51;;;;;;;5.82;5.22;;;;;;;-144.47;100.00;61586.06;5014035;28;20033;-86
2022/01/06 05:24:18;;;;;;;6.30;4.85;;;;;;;-144.47;100.00;61586.06;5031736;28;20582;-85
2022/01/06 05:26:44;;;;;;;5.90;5.00;;;;;;;-144.47;100.00;61586.06;5031767;28;20029;-85
2022/01/06 05:29:13;;;;;;;6.20;5.40;;;;;;;-144.47;100.00;61586.06;5031469;28;20172;-86
2022/01/06 05:31:39;;;;;;;9.10;5.32;;;;;;;-144.47;100.00;61586.06;5029861;28;20083;-85
2022/01/06 05:34:05;;;;;;;6.03;5.13;;;;;;;-144.47;100.00;61586.06;5031798;28;20083;-87
2022/01/06 05:36:31;;;;;;;6.22;5.10;;;;;;;-144.47;100.00;61586.06;5030471;28;20828;-85
2022/01/06 05:38:57;;;;;;;6.30;5.38;;;;;;;-144.47;100.00;61586.06;5031226;28;20041;-85
2022/01/06 05:41:22;;;;;;;6.00;5.50;;;;;;;-144.47;100.00;61586.06;5018535;28;20848;-86
2022/01/06 05:43:49;;;;;;;5.72;5.22;;;;;;;-144.47;100.00;61586.06;5022793;28;20426;-86
2022/01/06 05:46:16;;;;;;;7.57;5.50;;;;;;;-144.47;100.00;61586.06;5038058;28;20124;-85
2022/01/06 05:48:41;;;;;;;7.55;5.40;;;;;;;-144.47;100.00;61586.06;5031828;28;20081;-85
2022/01/06 05:51:07;;;;;;;7.50;5.53;;;;;;;-144.47;100.00;61586.06;5030004;28;20033;-84
2022/01/06 05:53:32;;;;;;;6.20;4.60;;;;;;;-144.47;100.00;61586.06;5030067;28;20389;-86
2022/01/06 05:55:58;;;;;;;4.78;4.30;;;;;;;-144.47;100.00;61586.06;5032049;28;20108;-86
2022/01/06 05:58:24;;;;;;;5.07;4.65;;;;;;;-144.47;100.00;61586.06;5031410;28;20037;-84
2022/01/06 06:00:50;;;;;;;4.97;4.43;;;;;;;-144.47;100.00;61586.06;5031289;28;20029;-86
2022/01/06 06:03:15;;;;;;;5.43;4.30;;;;;;;-144.47;100.00;61586.06;5031075;28;20125;-84
2022/01/06 06:05:42;;;;;;;5.60;4.88;;;;;;;-144.47;100.00;61586.06;5013830;28;20057;-85
2022/01/06 06:08:10;;;;;;;5.22;4.70;;;;;;;-144.47;100.00;61586.06;5031443;28;20136;-86
2022/01/06 06:10:36;;;;;;;6.72;4.53;;;;;;;-144.47;100.00;61586.06;5031460;28;20473;-86
2022/01/06 06:13:03;;;;;;;6.57;4.88;;;;;;;-144.47;100.00;61586.06;5031743;28;20044;-86
2022/01/06 06:15:34;;;;;;;5.50;4.78;;;;;;;-144.47;100.00;61586.06;5031320;28;20132;-86
2022/01/06 06:18:02;;;;;;;6.05;4.55;;;;;;;-144.47;100.00;61586.06;5031891;28;20107;-85
2022/01/06 06:20:28;;;;;;;4.65;4.20;;;;;;;-144.47;100.00;61586.06;5032431;28;20398;-86
2022/01/06 06:22:53;;;;;;;4.95;4.45;;;;;;;-144.47;100.00;61586.06;5035666;28;20045;-86
2022/01/06 06:25:19;;;;;;;5.35;4.82;;;;;;;-144.47;100.00;61586.06;5017667;28;20033;-86
2022/01/06 06:27:44;;;;;;;7.88;4.82;;;;;;;-144.47;100.00;61586.06;5037106;28;20029;-85
2022/01/06 06:30:10;;;;;;;5.70;4.75;;;;;;;-144.47;100.00;61586.06;5034650;28;20033;-84
2022/01/06 06:32:36;;;;;;;5.57;4.97;;;;;;;-144.47;100.00;61586.06;5034103;28;20022;-85
2022/01/06 06:35:05;;;;;;;5.63;4.95;;;;;;;-144.47;100.00;61586.06;5032916;28;20033;-85
2022/01/06 06:37:31;;;;;;;5.50;4.40;;;;;;;-144.47;100.00;61586.06;5034959;28;20029;-85
2022/01/06 06:39:57;;;;;;;5.95;4.72;;;;;;;-144.47;100.00;61586.06;5036864;28;20042;-86
2022/01/06 06:42:28;;;;;;;6.50;4.70;;;;;;;-144.47;100.00;61586.06;5033826;28;20293;-85
2022/01/06 06:44:54;;;;;;;5.70;5.10;;;;;;;-144.47;100.00;61586.06;5037118;28;20045;-85
2022/01/06 06:47:20;;;;;;;7.38;5.10;;;;;;;-144.47;100.00;61586.06;5053675;28;20048;-86
2022/01/06 06:49:45;;;;;;;5.20;4.53;;;;;;;-144.47;100.00;61586.06;5055495;28;20021;-86
2022/01/06 06:52:11;;;;;;;4.55;4.10;;;;;;;-144.47;100.00;61586.06;5053960;28;20048;-85
2022/01/06 06:54:36;;;;;;;7.43;4.68;;;;;;;-144.47;100.00;61586.06;5051275;28;20048;-86
2022/01/06 06:57:02;;;;;;;4.40;4.00;;;;;;;-144.47;100.00;61586.06;5051221;28;20041;-86
2022/01/06 06:59:28;;;;;;;8.80;5.57;;;;;;;-144.47;100.00;61586.06;5044576;28;20057;-87
2022/01/06 07:01:53;;;;;;;5.85;5.05;;;;;;;-144.47;100.00;61586.06;5014824;28;20530;-86
2022/01/06 07:04:19;;;;;;;7.55;5.15;;;;;;;-144.47;100.00;61586.06;5032994;28;20482;-86
2022/01/06 07:06:44;;;;;;;4.18;3.83;;;;;;;-144.47;100.00;61586.06;5032202;28;20379;-86
2022/01/06 07:09:10;;;;;;;5.50;5.00;;;;;;;-144.47;100.00;61586.06;5000077;28;20038;-86
2022/01/06 07:11:35;;;;;;;5.50;5.00;;;;;;;-144.47;100.00;61586.06;5020927;28;20157;-86
2022/01/06 07:14:01;;;;;;;6.30;5.45;;;;;;;-144.47;100.00;61586.06;5022267;28;20112;-86
2022/01/06 07:16:27;;;;;;;5.85;5.35;;;;;;;-144.47;100.00;61586.06;4998154;28;20050;-84
2022/01/06 07:18:52;;;;;;;6.00;5.03;;;;;;;-144.47;100.00;61586.06;5002614;28;20450;-84
2022/01/06 07:21:17;;;;;;;6.65;4.78;;;;;;;-144.47;100.00;61586.06;5000090;28;20076;-82
2022/01/06 07:23:43;;;;;;;5.75;4.70;;;;;;;-144.47;100.00;61586.06;5003488;28;20069;-81
2022/01/06 07:26:08;;;;;;;7.30;4.40;;;;;;;-144.47;100.00;61586.06;5003578;28;20120;-82
2022/01/06 07:28:34;;;;;;;6.22;4.78;;;;;;;-144.47;100.00;61586.06;5003985;28;20022;-82
2022/01/06 07:31:00;;;;;;;5.28;4.75;;;;;;;-144.47;100.00;61586.06;5002464;28;20130;-83
2022/01/06 07:33:26;;;;;;;5.50;5.00;;;;;;;-144.47;100.00;61586.06;5004726;28;20097;-84
2022/01/06 07:35:52;;;;;;;5.35;4.68;;;;;;;-144.47;100.00;61586.06;5004119;28;20092;-86
2022/01/06 07:38:17;;;;;;;6.07;4.68;;;;;;;-144.47;100.00;61586.06;5003581;28;20386;-85
2022/01/06 07:40:44;;;;;;;6.93;5.40;;;;;;;-144.47;100.00;61586.06;5000502;28;20328;-86
2022/01/06 07:43:10;;;;;;;7.88;5.97;;;;;;;-144.47;100.00;61586.06;5005883;28;20026;-86
2022/01/06 07:45:35;;;;;;;6.90;6.07;;;;;;;-144.47;100.00;61586.06;5008630;28;20792;-84
2022/01/06 07:48:03;;;;;;;12.65;6.10;;;;;;;-144.47;100.00;61586.06;5003705;28;20053;-84
2022/01/06 07:50:33;;;;;;;7.55;6.22;;;;;;;-144.47;100.00;61586.06;4669230;28;9999746;-84
2022/01/06 07:53:00;;;;;;;9.30;6.43;;;;;;;-144.47;100.00;61586.06;5002824;28;20038;-86
2022/01/06 07:55:28;;;;;;;8.93;6.82;;;;;;;-144.47;100.00;61586.06;4997032;28;20042;-84
2022/01/06 07:57:54;;;;;;;9.77;7.22;;;;;;;-144.47;100.00;61586.06;5010909;28;20498;-83
2022/01/06 08:00:21;;;;;;;9.35;7.13;;;;;;;-144.47;100.00;61586.06;5010544;28;20056;-84
2022/01/06 08:02:47;;;;;;;8.75;7.15;;;;;;;-144.47;100.00;61586.06;5010025;28;20033;-85
2022/01/06 08:05:14;;;;;;;7.90;6.88;;;;;;;-144.47;100.00;61586.06;5009421;28;20025;-80
2022/01/06 08:07:39;;;;;;;9.43;6.78;;;;;;;-144.47;100.00;61586.06;5010637;28;20048;-82
2022/01/06 08:10:06;;;;;;;8.23;7.30;;;;;;;-144.47;100.00;61586.06;4998152;28;20464;-81
2022/01/06 08:12:32;;;;;;;11.98;7.28;;;;;;;-144.47;100.00;61586.06;5000408;28;20599;-81
2022/01/06 08:14:58;;;;;;;9.80;6.63;;;;;;;-144.47;100.00;61586.06;5005454;28;20239;-81
2022/01/06 08:17:24;;;;;;;9.38;7.45;;;;;;;-144.47;100.00;61586.06;5024773;28;20038;-81
2022/01/06 08:19:49;;;;;;;9.00;7.53;;;;;;;-144.47;100.00;61586.06;4329514;28;10000697;-82
2022/01/06 08:22:15;;;;;;;8.52;7.68;;;;;;;-144.47;100.00;61586.06;5020766;28;20049;-82
2022/01/06 08:24:40;;;;;;;9.07;7.68;;;;;;;-144.47;100.00;61586.06;5022733;28;20064;-83
2022/01/06 08:27:08;;;;;;;9.40;8.15;;;;;;;-144.47;100.00;61586.06;5022747;28;20410;-83
2022/01/06 08:29:41;;;;;;;9.38;8.05;;;;;;;-144.47;100.00;61586.06;5007264;28;20033;-86
2022/01/06 08:32:07;;;;;;;12.77;8.45;;;;;;;-144.47;100.00;61586.06;5023288;28;20036;-85
2022/01/06 08:34:33;;;;;;;10.35;8.13;;;;;;;-144.47;100.00;61586.06;5006976;28;20196;-85
2022/01/06 08:37:00;;;;;;;12.10;8.90;;;;;;;-144.47;100.00;61586.06;5007510;28;20033;-82
2022/01/06 08:39:26;;;;;;;9.30;8.30;;;;;;;-144.47;100.00;61586.06;5032236;28;20393;-80
2022/01/06 08:41:52;;;;;;;13.77;9.48;;;;;;;-144.47;100.00;61586.06;5031214;28;20041;-80
2022/01/06 08:44:17;;;;;;;13.00;9.88;;;;;;;-144.47;100.00;61586.06;5031655;28;20049;-82
2022/01/06 08:46:45;;;;;;;10.90;9.40;;;;;;;-144.47;100.00;61586.06;5031823;28;20033;-81
2022/01/06 08:49:12;;;;;;;11.35;9.02;;;;;;;-144.47;100.00;61586.06;5031660;28;20472;-81
2022/01/06 08:51:42;;;;;;;9.60;8.60;;;;;;;-144.47;100.00;61586.06;5031543;28;20033;-83
2022/01/06 08:54:07;;;;;;;48.03;25.65;;;;;;;-144.47;100.00;61586.06;5030652;28;20044;-82
2022/01/06 08:56:35;;;;;;;135.10;49.22;;;;;;;-144.47;100.00;61586.06;5032231;28;20501;-80
2022/01/06 08:59:01;;;;;;;91.25;36.80;;;;;;;-144.47;100.00;61586.06;5031849;28;20473;-80
2022/01/06 09:01:27;;;;;;;133.32;49.08;;;;;;;-144.47;100.00;61586.06;5031811;28;20033;-84
2022/01/06 09:03:53;;;;;;;22.63;14.23;;;;;;;-144.47;100.00;61586.06;5010665;28;20371;-84
2022/01/06 09:06:20;;;;;;;14.15;11.02;;;;;;;-144.47;100.00;61586.06;5013753;28;20045;-85
2022/01/06 09:08:46;;;;;;;15.00;11.07;;;;;;;-144.47;100.00;61586.06;5032053;28;20515;-84
2022/01/06 09:11:12;;;;;;;16.13;11.52;;;;;;;-144.47;100.00;61586.06;5031592;28;20036;-83
2022/01/06 09:13:37;;;;;;;15.45;11.85;;;;;;;-144.47;100.00;61586.06;5032641;28;20025;-85
2022/01/06 09:16:03;;;;;;;15.07;11.45;;;;;;;-144.47;100.00;61586.06;5021240;28;20037;-81
2022/01/06 09:18:29;;;;;;;15.43;11.00;;;;;;;-144.47;100.00;61586.06;5002537;28;20034;-83
2022/01/06 09:20:55;;;;;;;15.65;10.88;;;;;;;-144.47;100.00;61586.06;5022975;28;20034;-86
2022/01/06 09:23:20;;;;;;;15.23;11.38;;;;;;;-144.47;100.00;61586.06;5019856;28;20057;-82
2022/01/06 09:25:46;;;;;;;15.52;11.23;;;;;;;-144.47;100.00;61586.06;5012074;28;20034;-83
2022/01/06 09:28:13;;;;;;;15.25;11.18;;;;;;;-144.47;100.00;61586.06;5021771;28;20037;-84
2022/01/06 09:30:38;;;;;;;13.73;10.65;;;;;;;-144.47;100.00;61586.06;5021692;28;20739;-83
2022/01/06 09:33:04;;;;;;;16.17;11.80;;;;;;;-144.47;100.00;61586.06;5019570;28;20057;-77
2022/01/06 09:35:29;;;;;;;16.88;12.32;;;;;;;-144.47;100.00;61586.06;5021056;28;20029;-77
2022/01/06 09:37:55;;;;;;;16.05;11.82;;;;;;;-144.47;100.00;61586.06;5033182;28;20030;-77
2022/01/06 09:40:20;;;;;;;15.45;11.85;;;;;;;-144.47;100.00;61586.06;5029098;28;20952;-77
2022/01/06 09:42:47;;;;;;;17.63;11.45;;;;;;;-144.47;100.00;61586.06;5028705;28;20032;-78
2022/01/06 09:45:12;;;;;;;18.35;12.25;;;;;;;-144.47;100.00;61586.06;5010474;28;20049;-77
2022/01/06 09:47:39;;;;;;;16.52;11.45;;;;;;;-144.47;100.00;61586.06;5030002;28;20366;-77
2022/01/06 09:50:07;;;;;;;18.60;12.93;;;;;;;-144.47;100.00;61586.06;5029682;28;20115;-76
2022/01/06 09:52:34;;;;;;;14.57;11.25;;;;;;;-144.47;100.00;61586.06;5012183;28;20037;-78
2022/01/06 09:55:03;;;;;;;16.15;12.07;;;;;;;-144.47;100.00;61586.06;5029667;28;20401;-78
2022/01/06 09:57:28;;;;;;;15.10;11.73;;;;;;;-144.47;100.00;61586.06;5030008;28;20037;-77
2022/01/06 09:59:54;;;;;;;15.18;11.60;;;;;;;-144.47;100.00;61586.06;5030112;28;20104;-78
2022/01/06 10:02:19;;;;;;;15.30;11.38;;;;;;;-144.47;100.00;61586.06;5029197;28;20083;-76
2022/01/06 10:04:56;;;;;;;15.35;11.05;;;;;;;-144.47;100.00;61586.06;5029748;28;20065;-75
2022/01/06 10:07:22;;;;;;;15.90;11.35;;;;;;;-144.47;100.00;61586.06;5029729;28;20041;-77
2022/01/06 10:09:47;;;;;;;18.58;11.88;;;;;;;-144.47;100.00;61586.06;5029583;28;20370;-78
2022/01/06 10:12:13;;;;;;;13.82;10.43;;;;;;;-144.47;100.00;61586.06;5029359;28;20040;-78
2022/01/06 10:14:46;;;;;;;17.45;10.73;;;;;;;-144.47;100.00;61586.06;5029723;28;20117;-78
2022/01/06 10:17:27;;;;;;;18.10;10.40;;;;;;;-144.47;100.00;61586.06;5028954;28;20053;-77
2022/01/06 10:19:54;;;;;;;15.98;11.13;;;;;;;-144.47;100.00;61586.06;5025834;28;20052;-78
2022/01/06 10:22:20;;;;;;;14.10;10.93;;;;;;;-144.47;100.00;61586.06;5029189;28;20053;-77
2022/01/06 10:24:48;;;;;;;15.82;11.55;;;;;;;-144.47;100.00;61586.06;5011395;28;20386;-78
2022/01/06 10:27:19;;;;;;;17.85;11.60;;;;;;;-144.47;100.00;61586.06;5028943;28;20041;-76
2022/01/06 10:29:52;;;;;;;17.30;12.40;;;;;;;-144.47;100.00;61586.06;5029795;28;20108;-77
2022/01/06 10:32:24;;;;;;;15.57;12.63;;;;;;;-144.47;100.00;61586.06;5029556;28;20041;-79
2022/01/06 10:34:55;;;;;;;20.70;13.15;;;;;;;-144.47;100.00;61586.06;5012037;28;20030;-76
2022/01/06 10:37:25;;;;;;;21.85;13.68;;;;;;;-144.47;100.00;61586.06;5029348;28;20033;-77
2022/01/06 10:39:53;;;;;;;19.98;13.55;;;;;;;-144.47;100.00;61586.06;5029705;28;20030;-79
2022/01/06 10:42:24;;;;;;;22.27;14.93;;;;;;;-144.47;100.00;61586.06;5029018;28;20548;-76
2022/01/06 10:44:53;;;;;;;26.00;16.70;;;;;;;-144.47;100.00;61586.06;5029725;28;20116;-77
2022/01/06 10:47:39;;;;;;;24.85;16.05;;;;;;;-144.47;100.00;61586.06;5018259;28;20045;-77
2022/01/06 10:50:13;;;;;;;24.95;16.85;;;;;;;-144.47;100.00;61586.06;5038491;28;20033;-77
2022/01/06 10:52:42;;;;;;;24.35;16.38;;;;;;;-144.47;100.00;61586.06;5041549;28;20040;-77
2022/01/06 10:55:35;;;;;;;24.75;16.73;;;;;;;-144.47;100.00;61586.06;5039727;28;20088;-78
2022/01/06 10:58:04;;;;;;;23.30;15.98;;;;;;;-144.47;100.00;61586.06;5026589;28;20458;-76
2022/01/06 11:00:53;;;;;;;20.17;14.93;;;;;;;-144.47;100.00;61586.06;5033782;28;20112;-75
2022/01/06 11:03:20;;;;;;;19.02;13.07;;;;;;;-144.47;100.00;61586.06;5033304;28;20037;-78
2022/01/06 11:05:52;;;;;;;16.55;12.45;;;;;;;-144.47;100.00;61586.06;5033967;28;20029;-78
2022/01/06 11:08:24;;;;;;;16.73;12.75;;;;;;;-144.47;100.00;61586.06;5033839;28;20038;-79
2022/01/06 11:11:13;;;;;;;15.50;12.27;;;;;;;-144.47;100.00;61586.06;5033918;28;20096;-78
2022/01/06 11:13:46;;;;;;;12.95;10.15;;;;;;;-144.47;100.00;61586.06;5031659;28;20041;-78